Time;durP1;ratioP1;P1;durP2;ratioP2;P2;SDS_P1;SDS_P2;PMS_P1;PMS_P2;Temp;Humidity;BMP_temperature;BMP_pressure;BME280_temperature;BME280_humidity;BME280_pressure;Samples;Min_cycle;Max_cycle;Signal;HPM_P1;HPM_P2
2024/01/02 00:01:34;;;;;;;5.53;1.40;;;9.00;99.90;;;;;;6278656;22;20152;-86
2024/01/02 00:04:00;;;;;;;8.77;1.60;;;9.00;1.00;;;;;;6281755;22;20475;-86
2024/01/02 00:06:25;;;;;;;5.80;1.20;;;9.00;1.00;;;;;;6280295;22;20397;-85
2024/01/02 00:08:51;;;;;;;5.40;1.20;;;9.00;1.00;;;;;;6280843;22;20654;-86
2024/01/02 00:11:16;;;;;;;6.97;1.10;;;8.90;1.00;;;;;;6277878;22;20228;-86
2024/01/02 00:13:42;;;;;;;10.10;2.00;;;8.80;1.00;;;;;;6279867;22;20160;-86
2024/01/02 00:16:07;;;;;;;6.20;1.10;;;8.80;1.00;;;;;;6252910;22;20165;-87
2024/01/02 00:18:33;;;;;;;5.87;1.50;;;8.70;1.00;;;;;;6279912;22;20678;-86
2024/01/02 00:20:59;;;;;;;4.80;0.93;;;8.70;1.00;;;;;;6284931;22;20156;-87
2024/01/02 00:23:24;;;;;;;8.07;1.33;;;8.60;1.00;;;;;;6283661;22;20398;-86
2024/01/02 00:25:50;;;;;;;3.60;1.40;;;8.60;1.00;;;;;;6282810;22;20152;-87
2024/01/02 00:28:15;;;;;;;5.43;1.20;;;8.60;1.00;;;;;;6283617;22;20165;-86
2024/01/02 00:30:41;;;;;;;15.40;1.50;;;8.60;1.00;;;;;;6256087;22;20153;-86
2024/01/02 00:33:07;;;;;;;3.30;0.87;;;8.50;1.00;;;;;;6254455;22;20157;-86
2024/01/02 00:35:35;;;;;;;5.13;1.13;;;8.50;1.00;;;;;;6279379;22;20144;-86
2024/01/02 00:38:01;;;;;;;4.07;1.13;;;8.50;5.90;;;;;;6251990;22;20548;-86
2024/01/02 00:40:27;;;;;;;3.47;1.17;;;8.40;13.20;;;;;;6279915;22;20457;-87
2024/01/02 00:42:52;;;;;;;8.63;1.43;;;8.40;20.50;;;;;;6253079;22;20620;-86
2024/01/02 00:45:18;;;;;;;7.47;1.00;;;8.40;24.80;;;;;;6251567;22;20149;-86
2024/01/02 00:47:43;;;;;;;5.07;1.00;;;8.30;30.80;;;;;;6277632;22;20203;-87
2024/01/02 00:50:10;;;;;;;2.40;0.80;;;8.30;39.40;;;;;;6278011;22;20149;-87
2024/01/02 00:52:36;;;;;;;2.77;1.23;;;8.30;45.60;;;;;;6278089;22;20153;-87
2024/01/02 00:55:02;;;;;;;7.90;1.47;;;8.30;50.60;;;;;;6274938;22;20501;-87
2024/01/02 00:57:28;;;;;;;5.90;1.17;;;8.30;56.20;;;;;;6277019;22;20161;-87
2024/01/02 00:59:53;;;;;;;2.47;1.00;;;8.30;60.40;;;;;;6277997;22;20414;-87
2024/01/02 01:02:19;;;;;;;7.60;1.93;;;8.30;71.30;;;;;;6250652;22;20165;-87
2024/01/02 01:04:45;;;;;;;33.23;2.40;;;8.30;84.80;;;;;;6277679;22;20176;-87
2024/01/02 01:07:11;;;;;;;27.80;2.80;;;8.20;91.00;;;;;;6277654;22;20145;-88
2024/01/02 01:09:37;;;;;;;3.13;1.30;;;8.20;93.10;;;;;;6277999;22;20874;-87
2024/01/02 01:12:04;;;;;;;9.50;1.40;;;8.20;96.60;;;;;;6249813;22;20419;-87
2024/01/02 01:14:29;;;;;;;11.73;1.70;;;8.10;97.10;;;;;;6279113;22;20384;-87
2024/01/02 01:16:55;;;;;;;3.60;1.07;;;8.10;97.00;;;;;;6277414;22;20414;-87
2024/01/02 01:19:21;;;;;;;8.57;1.43;;;8.00;99.80;;;;;;6277250;22;20267;-86
2024/01/02 01:21:46;;;;;;;4.67;1.20;;;8.00;99.90;;;;;;6274900;22;20612;-86
2024/01/02 01:24:12;;;;;;;7.17;1.83;;;7.90;99.90;;;;;;6276819;22;20145;-87
2024/01/02 01:26:37;;;;;;;2.50;1.17;;;7.90;99.90;;;;;;6276658;22;20638;-86
2024/01/02 01:29:03;;;;;;;7.70;1.33;;;7.90;99.90;;;;;;6275963;22;20181;-85
2024/01/02 01:31:28;;;;;;;7.20;1.47;;;7.90;99.90;;;;;;6277003;22;20156;-85
2024/01/02 01:33:54;;;;;;;1.30;0.70;;;7.80;99.90;;;;;;6276246;22;20231;-88
2024/01/02 01:36:19;;;;;;;7.17;1.20;;;7.80;99.90;;;;;;6276485;22;20153;-86
2024/01/02 01:38:48;;;;;;;4.50;1.20;;;7.80;99.90;;;;;;6276460;22;20259;-86
2024/01/02 01:41:13;;;;;;;3.37;1.00;;;7.80;99.90;;;;;;6275642;22;20222;-86
2024/01/02 01:43:39;;;;;;;8.57;1.60;;;7.80;99.90;;;;;;6277250;22;20443;-86
2024/01/02 01:46:06;;;;;;;7.77;1.03;;;7.90;99.90;;;;;;6274915;22;20160;-85
2024/01/02 01:48:33;;;;;;;5.93;1.43;;;7.80;99.90;;;;;;6249853;22;20203;-85
2024/01/02 01:50:58;;;;;;;6.47;0.90;;;7.80;99.90;;;;;;6277609;22;20774;-85
2024/01/02 01:53:24;;;;;;;2.10;0.80;;;7.80;99.90;;;;;;6277019;22;20368;-85
2024/01/02 01:55:50;;;;;;;3.87;1.23;;;7.80;99.90;;;;;;6277099;22;20164;-85
2024/01/02 01:58:16;;;;;;;1.60;0.73;;;7.80;99.90;;;;;;6277472;22;20180;-85
2024/01/02 02:00:43;;;;;;;5.23;1.30;;;7.70;99.90;;;;;;6278711;22;20395;-85
2024/01/02 02:03:10;;;;;;;5.03;0.90;;;7.60;99.90;;;;;;6275715;22;20404;-84
2024/01/02 02:05:36;;;;;;;4.70;0.77;;;7.60;99.90;;;;;;6277083;22;20371;-85
2024/01/02 02:08:01;;;;;;;0.97;0.73;;;7.60;99.90;;;;;;6277718;22;20395;-86
2024/01/02 02:10:28;;;;;;;2.83;0.90;;;7.70;99.90;;;;;;6277907;22;20375;-85
2024/01/02 02:12:54;;;;;;;2.97;0.70;;;7.70;99.90;;;;;;6250984;22;20394;-85
2024/01/02 02:15:21;;;;;;;4.80;0.70;;;7.60;99.90;;;;;;6278232;22;20383;-85
2024/01/02 02:17:46;;;;;;;2.50;0.80;;;7.60;99.90;;;;;;6278040;22;20259;-84
2024/01/02 02:20:12;;;;;;;1.50;0.60;;;7.50;99.90;;;;;;6250959;22;20624;-85
2024/01/02 02:22:38;;;;;;;2.80;0.80;;;7.50;99.90;;;;;;6277835;22;20149;-83
2024/01/02 02:25:06;;;;;;;5.57;0.80;;;7.50;99.90;;;;;;6250652;22;20210;-85
2024/01/02 02:27:33;;;;;;;1.80;1.08;;;7.40;99.90;;;;;;6277967;22;20387;-86
2024/01/02 02:29:59;;;;;;;1.58;0.70;;;7.40;99.90;;;;;;6250126;22;20240;-85
2024/01/02 02:32:25;;;;;;;2.37;0.70;;;7.40;99.90;;;;;;6278265;22;20593;-84
2024/01/02 02:34:50;;;;;;;5.90;0.70;;;7.50;99.90;;;;;;6250838;22;20392;-85
2024/01/02 02:37:16;;;;;;;3.70;0.70;;;7.40;99.90;;;;;;6251064;22;20165;-86
2024/01/02 02:39:41;;;;;;;3.90;0.70;;;7.40;99.90;;;;;;6276791;22;20176;-85
2024/01/02 02:42:07;;;;;;;8.77;0.90;;;7.50;99.90;;;;;;6276030;22;20203;-85
2024/01/02 02:44:33;;;;;;;3.00;0.60;;;7.50;99.90;;;;;;6276386;22;20156;-85
2024/01/02 02:46:59;;;;;;;9.60;1.00;;;7.40;99.90;;;;;;6277275;22;20537;-86
2024/01/02 02:49:25;;;;;;;0.83;0.50;;;7.40;99.90;;;;;;6277882;22;20427;-86
2024/01/02 02:51:51;;;;;;;2.93;0.50;;;7.40;99.90;;;;;;6280267;22;20375;-85
2024/01/02 02:54:16;;;;;;;2.10;0.70;;;7.50;99.90;;;;;;6253356;22;20183;-85
2024/01/02 02:56:43;;;;;;;11.60;1.30;;;7.50;99.90;;;;;;6252172;22;20387;-88
2024/01/02 02:59:10;;;;;;;10.50;1.20;;;7.50;99.90;;;;;;6280720;22;20275;-86
2024/01/02 03:01:35;;;;;;;14.60;2.87;;;7.60;99.90;;;;;;6280454;22;20378;-86
2024/01/02 03:04:01;;;;;;;11.57;1.37;;;7.50;99.90;;;;;;6279005;22;20412;-85
2024/01/02 03:06:26;;;;;;;2.70;0.70;;;7.50;99.90;;;;;;6277705;22;20152;-86
2024/01/02 03:08:52;;;;;;;4.10;0.90;;;7.50;99.90;;;;;;6249468;22;20519;-86
2024/01/02 03:11:18;;;;;;;3.93;0.60;;;7.50;99.90;;;;;;6275670;22;20228;-86
2024/01/02 03:13:45;;;;;;;4.25;0.60;;;7.50;99.90;;;;;;6274986;22;20200;-86
2024/01/02 03:16:11;;;;;;;6.43;0.80;;;7.60;99.90;;;;;;6248926;22;20164;-87
2024/01/02 03:18:36;;;;;;;1.10;0.70;;;7.60;99.90;;;;;;6276859;22;20192;-88
2024/01/02 03:21:02;;;;;;;2.50;0.63;;;7.60;99.90;;;;;;6276489;22;20371;-86
2024/01/02 03:23:27;;;;;;;3.17;0.83;;;7.60;99.90;;;;;;6274325;22;20502;-87
2024/01/02 03:25:53;;;;;;;9.30;1.63;;;7.60;99.90;;;;;;6275903;22;20159;-87
2024/01/02 03:28:18;;;;;;;1.80;0.70;;;7.60;99.90;;;;;;6275790;22;20192;-87
2024/01/02 03:30:44;;;;;;;2.60;0.50;;;7.70;99.90;;;;;;6276083;22;20164;-87
2024/01/02 03:33:09;;;;;;;13.87;1.10;;;7.70;99.90;;;;;;6248992;22;20188;-87
2024/01/02 03:35:35;;;;;;;3.67;0.70;;;7.70;99.90;;;;;;6275539;22;20156;-86
2024/01/02 03:38:01;;;;;;;8.47;0.90;;;7.70;99.90;;;;;;6276324;22;20169;-86
2024/01/02 03:40:26;;;;;;;3.87;0.70;;;7.70;99.90;;;;;;6276143;22;20520;-86
2024/01/02 03:42:52;;;;;;;6.73;0.97;;;7.70;99.90;;;;;;6276847;22;20224;-88
2024/01/02 03:45:17;;;;;;;0.90;0.60;;;7.80;99.90;;;;;;6277038;22;20236;-86
2024/01/02 03:47:43;;;;;;;1.20;0.70;;;7.80;99.90;;;;;;6279397;22;20547;-86
2024/01/02 03:50:08;;;;;;;9.77;1.50;;;7.80;99.90;;;;;;6252036;22;20168;-87
2024/01/02 03:52:34;;;;;;;4.93;1.13;;;7.80;99.90;;;;;;6277624;22;20167;-86
2024/01/02 03:54:59;;;;;;;6.40;0.90;;;7.90;99.90;;;;;;6251659;22;20157;-86
2024/01/02 03:57:26;;;;;;;1.73;0.80;;;7.90;99.90;;;;;;6279393;22;20152;-87
2024/01/02 03:59:52;;;;;;;4.60;1.20;;;8.00;99.90;;;;;;6252971;22;20188;-86
2024/01/02 04:02:18;;;;;;;1.20;0.90;;;8.10;99.90;;;;;;6279396;22;20399;-89
2024/01/02 04:04:44;;;;;;;4.60;0.80;;;8.20;99.90;;;;;;6279555;22;20380;-86
2024/01/02 04:07:09;;;;;;;1.10;0.77;;;8.20;99.90;;;;;;6253366;22;20153;-86
2024/01/02 04:09:35;;;;;;;0.90;0.60;;;8.30;99.90;;;;;;6277197;22;20169;-87
2024/01/02 04:12:00;;;;;;;2.40;0.50;;;8.30;99.90;;;;;;6279796;22;20149;-86
2024/01/02 04:14:26;;;;;;;0.80;0.50;;;8.40;99.90;;;;;;6252692;22;20167;-86
2024/01/02 04:16:52;;;;;;;1.43;0.50;;;8.40;99.90;;;;;;6282515;22;20156;-87
2024/01/02 04:19:17;;;;;;;2.60;0.50;;;8.50;99.90;;;;;;6275625;22;20541;-86
2024/01/02 04:21:43;;;;;;;1.57;0.50;;;8.50;99.90;;;;;;6287758;22;20155;-86
2024/01/02 04:24:09;;;;;;;0.90;0.60;;;8.60;99.90;;;;;;6279018;22;20157;-85
2024/01/02 04:26:34;;;;;;;0.80;0.50;;;8.60;99.90;;;;;;6274805;22;20454;-85
2024/01/02 04:29:01;;;;;;;0.80;0.40;;;8.70;99.90;;;;;;6276664;22;20184;-85
2024/01/02 04:31:27;;;;;;;0.83;0.50;;;8.80;99.90;;;;;;6277822;22;20228;-84
2024/01/02 04:33:52;;;;;;;0.90;0.50;;;8.80;99.90;;;;;;6277252;22;20718;-85
2024/01/02 04:36:18;;;;;;;0.90;0.53;;;8.90;99.90;;;;;;6276323;22;20621;-84
2024/01/02 04:38:43;;;;;;;0.90;0.50;;;9.00;99.90;;;;;;6277587;22;20234;-85
2024/01/02 04:41:09;;;;;;;0.80;0.50;;;9.00;99.90;;;;;;6277901;22;20152;-84
2024/01/02 04:43:34;;;;;;;0.90;0.40;;;9.10;99.90;;;;;;6276898;22;20174;-84
2024/01/02 04:46:00;;;;;;;0.80;0.50;;;9.20;99.90;;;;;;6278911;22;20156;-85
2024/01/02 04:48:26;;;;;;;0.90;0.50;;;9.20;99.90;;;;;;6275454;22;20219;-84
2024/01/02 04:50:51;;;;;;;0.80;0.43;;;9.30;99.90;;;;;;6276318;22;20199;-84
2024/01/02 04:53:17;;;;;;;0.80;0.40;;;9.30;99.90;;;;;;6277940;22;20368;-85
2024/01/02 04:55:42;;;;;;;0.80;0.60;;;9.40;99.90;;;;;;6277200;22;20777;-85
2024/01/02 04:58:08;;;;;;;0.90;0.50;;;9.40;99.90;;;;;;6277560;22;20176;-84
2024/01/02 05:00:34;;;;;;;0.90;0.50;;;9.50;99.90;;;;;;6277656;22;20187;-85
2024/01/02 05:02:59;;;;;;;0.80;0.50;;;9.50;99.90;;;;;;6276486;22;20171;-84
2024/01/02 05:05:25;;;;;;;0.80;0.50;;;9.60;99.90;;;;;;6276167;22;20616;-85
2024/01/02 05:07:50;;;;;;;1.00;0.50;;;9.60;99.90;;;;;;6273972;22;20172;-83
2024/01/02 05:10:16;;;;;;;0.80;0.47;;;9.60;99.90;;;;;;6274946;22;20194;-84
2024/01/02 05:12:41;;;;;;;1.50;0.43;;;9.60;99.90;;;;;;6276494;22;20152;-84
2024/01/02 05:15:07;;;;;;;0.80;0.40;;;9.70;99.90;;;;;;6274373;22;20503;-84
2024/01/02 05:17:33;;;;;;;0.80;0.50;;;9.70;99.90;;;;;;6275158;22;20176;-84
2024/01/02 05:19:58;;;;;;;0.80;0.50;;;9.70;99.90;;;;;;6275119;22;20769;-84
2024/01/02 05:22:24;;;;;;;0.90;0.50;;;9.70;99.90;;;;;;6276800;22;20330;-84
2024/01/02 05:24:49;;;;;;;0.90;0.50;;;9.80;99.90;;;;;;6275003;22;20149;-83
2024/01/02 05:27:15;;;;;;;0.80;0.50;;;9.80;99.90;;;;;;6275551;22;20152;-84
2024/01/02 05:29:42;;;;;;;0.80;0.50;;;9.90;99.90;;;;;;6276677;22;20156;-85
2024/01/02 05:32:07;;;;;;;0.90;0.50;;;9.90;99.90;;;;;;6277558;22;20163;-85
2024/01/02 05:34:33;;;;;;;1.10;0.70;;;9.90;99.90;;;;;;6277163;22;20470;-85
2024/01/02 05:36:58;;;;;;;0.90;0.50;;;10.00;99.90;;;;;;6276947;22;20156;-84
2024/01/02 05:39:24;;;;;;;1.87;1.27;;;10.00;99.90;;;;;;6276422;22;20659;-84
2024/01/02 05:41:49;;;;;;;1.17;0.70;;;10.10;99.90;;;;;;6277877;22;20145;-85
2024/01/02 05:44:15;;;;;;;0.90;0.50;;;10.10;99.90;;;;;;6275596;22;20180;-85
2024/01/02 05:46:40;;;;;;;0.97;0.50;;;10.10;99.90;;;;;;6282957;22;20145;-85
2024/01/02 05:49:06;;;;;;;3.53;0.50;;;10.10;99.90;;;;;;6281426;22;20183;-85
2024/01/02 05:51:31;;;;;;;1.73;0.50;;;10.10;99.90;;;;;;6280326;22;20160;-85
2024/01/02 05:53:57;;;;;;;1.63;0.50;;;10.10;99.90;;;;;;6276804;22;20614;-85
2024/01/02 05:56:22;;;;;;;0.80;0.50;;;10.10;99.90;;;;;;6278795;22;20153;-85
2024/01/02 05:58:48;;;;;;;0.80;0.50;;;10.20;99.90;;;;;;6279137;22;20180;-86
2024/01/02 06:01:13;;;;;;;1.57;0.50;;;10.20;99.90;;;;;;6279256;22;20145;-85
2024/01/02 06:03:39;;;;;;;1.00;0.50;;;10.20;99.90;;;;;;6279703;22;20156;-86
2024/01/02 06:06:05;;;;;;;0.97;0.50;;;10.30;99.90;;;;;;6280616;22;20153;-85
2024/01/02 06:08:31;;;;;;;1.20;0.60;;;10.30;99.90;;;;;;6279942;22;20243;-85
2024/01/02 06:10:56;;;;;;;0.90;0.50;;;10.30;99.90;;;;;;6279017;22;20378;-85
2024/01/02 06:13:22;;;;;;;1.40;0.60;;;10.30;99.90;;;;;;6275687;22;20159;-85
2024/01/02 06:15:47;;;;;;;0.90;0.50;;;10.30;99.90;;;;;;6278318;22;20155;-86
2024/01/02 06:18:13;;;;;;;1.00;0.60;;;10.40;99.90;;;;;;6277102;22;20180;-86
2024/01/02 06:20:38;;;;;;;0.90;0.50;;;10.40;99.90;;;;;;6275886;22;20636;-86
2024/01/02 06:23:04;;;;;;;1.57;0.60;;;10.40;99.90;;;;;;6275139;22;20223;-86
2024/01/02 06:25:29;;;;;;;1.93;0.60;;;10.50;99.90;;;;;;6274543;22;20203;-86
2024/01/02 06:27:55;;;;;;;1.73;0.70;;;10.50;99.90;;;;;;6275908;22;20191;-85
2024/01/02 06:30:22;;;;;;;0.80;0.50;;;10.50;99.90;;;;;;6247319;22;20195;-84
2024/01/02 06:32:48;;;;;;;0.90;0.67;;;10.50;99.90;;;;;;6275203;22;20375;-86
2024/01/02 06:35:14;;;;;;;1.00;0.60;;;10.60;99.90;;;;;;6248461;22;20513;-85
2024/01/02 06:37:40;;;;;;;1.00;0.60;;;10.60;99.90;;;;;;6277064;22;21190;-86
2024/01/02 06:40:06;;;;;;;0.90;0.60;;;10.60;99.90;;;;;;6252042;22;20192;-85
2024/01/02 06:42:32;;;;;;;0.93;0.63;;;10.60;99.90;;;;;;6277372;22;20375;-86
2024/01/02 06:44:57;;;;;;;0.90;0.70;;;10.70;99.90;;;;;;6279588;22;20444;-85
2024/01/02 06:47:23;;;;;;;0.90;0.70;;;10.70;99.90;;;;;;6278828;22;20152;-86
2024/01/02 06:49:48;;;;;;;1.00;0.70;;;10.80;99.90;;;;;;6277929;22;20180;-85
2024/01/02 06:52:14;;;;;;;1.10;0.87;;;10.80;99.90;;;;;;6277066;22;20149;-85
2024/01/02 06:54:39;;;;;;;1.53;1.00;;;10.80;99.90;;;;;;6276142;22;20496;-85
2024/01/02 06:57:05;;;;;;;1.00;0.70;;;10.80;99.90;;;;;;6277337;22;20157;-85
2024/01/02 06:59:30;;;;;;;1.00;0.70;;;10.90;99.90;;;;;;6277535;22;20189;-85
2024/01/02 07:01:56;;;;;;;1.97;0.80;;;10.90;99.90;;;;;;6277960;22;20152;-85
2024/01/02 07:04:21;;;;;;;1.00;0.87;;;10.90;99.90;;;;;;6276474;22;20160;-83
2024/01/02 07:06:47;;;;;;;1.10;0.70;;;10.90;99.90;;;;;;6276589;22;20588;-84
2024/01/02 07:09:13;;;;;;;1.20;0.60;;;11.00;99.90;;;;;;6275252;22;20169;-85
2024/01/02 07:11:38;;;;;;;1.10;0.60;;;11.00;99.90;;;;;;6246470;22;20152;-85
2024/01/02 07:14:03;;;;;;;0.90;0.60;;;11.00;99.90;;;;;;6274735;22;20149;-84
2024/01/02 07:16:31;;;;;;;1.90;0.60;;;11.00;99.90;;;;;;6248489;22;20156;-86
2024/01/02 07:18:57;;;;;;;1.73;0.97;;;11.10;99.90;;;;;;6276812;22;20242;-85
2024/01/02 07:21:22;;;;;;;1.10;0.90;;;11.10;99.90;;;;;;6281136;22;20859;-85
2024/01/02 07:23:48;;;;;;;2.00;0.60;;;11.10;99.90;;;;;;6282823;22;20242;-85
2024/01/02 07:26:14;;;;;;;1.00;0.73;;;11.10;99.90;;;;;;6279918;22;20222;-84
2024/01/02 07:28:39;;;;;;;1.83;0.60;;;11.10;99.90;;;;;;6277989;22;20230;-86
2024/01/02 07:31:05;;;;;;;1.00;0.60;;;11.20;99.90;;;;;;6277536;22;20231;-85
2024/01/02 07:33:31;;;;;;;1.00;0.70;;;11.20;99.90;;;;;;6278265;22;20157;-84
2024/01/02 07:35:56;;;;;;;1.20;0.70;;;11.20;99.90;;;;;;6281299;22;20153;-83
2024/01/02 07:38:26;;;;;;;0.90;0.70;;;11.20;99.90;;;;;;6278768;22;20387;-83
2024/01/02 07:40:54;;;;;;;1.63;0.77;;;11.30;99.90;;;;;;6280555;22;20596;-83
2024/01/02 07:43:22;;;;;;;1.00;0.80;;;11.30;99.90;;;;;;6278854;22;20443;-85
2024/01/02 07:45:47;;;;;;;1.40;0.73;;;11.30;99.90;;;;;;6250142;22;20514;-81
2024/01/02 07:48:13;;;;;;;0.90;0.60;;;11.40;99.90;;;;;;6251444;22;20398;-84
2024/01/02 07:50:38;;;;;;;1.10;0.60;;;11.40;99.90;;;;;;6279097;22;20267;-85
2024/01/02 07:53:04;;;;;;;1.27;0.70;;;11.40;99.90;;;;;;6249333;22;20546;-84
2024/01/02 07:55:30;;;;;;;1.10;0.80;;;11.40;99.90;;;;;;6277487;22;20161;-84
2024/01/02 07:57:56;;;;;;;1.00;0.80;;;11.40;99.90;;;;;;6278527;22;20188;-84
2024/01/02 08:00:22;;;;;;;1.00;0.80;;;11.40;99.90;;;;;;6280286;22;20886;-83
2024/01/02 08:02:47;;;;;;;1.67;1.10;;;11.40;99.90;;;;;;6280181;22;20382;-84
2024/01/02 08:05:13;;;;;;;1.60;1.20;;;11.40;99.90;;;;;;6280972;22;20472;-85
2024/01/02 08:07:39;;;;;;;1.73;1.00;;;11.50;99.90;;;;;;6281291;22;20173;-83
2024/01/02 08:10:06;;;;;;;2.30;1.80;;;11.50;99.90;;;;;;6281813;22;20153;-84
2024/01/02 08:12:32;;;;;;;1.33;1.10;;;11.50;99.90;;;;;;6281126;22;20218;-84
2024/01/02 08:14:57;;;;;;;2.13;1.03;;;11.60;99.90;;;;;;6283834;22;20439;-84
2024/01/02 08:17:23;;;;;;;2.80;1.30;;;11.60;99.90;;;;;;6285514;22;20517;-87
2024/01/02 08:19:51;;;;;;;1.40;1.10;;;11.60;99.90;;;;;;6282289;22;20263;-82
2024/01/02 08:22:18;;;;;;;1.33;1.07;;;11.70;99.90;;;;;;6280683;22;20160;-84
2024/01/02 08:24:47;;;;;;;1.97;0.90;;;11.70;99.30;;;;;;6280769;22;20472;-84
2024/01/02 08:27:13;;;;;;;1.60;0.87;;;11.70;98.60;;;;;;6254840;22;20382;-84
2024/01/02 08:29:38;;;;;;;1.33;1.10;;;11.70;96.80;;;;;;6281985;22;20819;-85
2024/01/02 08:32:04;;;;;;;1.30;0.80;;;11.70;93.00;;;;;;6280087;22;20185;-84
2024/01/02 08:34:30;;;;;;;1.00;0.70;;;11.80;92.80;;;;;;6273689;22;20153;-83
2024/01/02 08:36:55;;;;;;;1.10;0.70;;;11.80;90.70;;;;;;6283894;22;20809;-84
2024/01/02 08:39:21;;;;;;;1.50;0.87;;;11.80;90.80;;;;;;6278829;22;20184;-87
2024/01/02 08:41:46;;;;;;;1.00;0.80;;;11.80;83.10;;;;;;6280013;22;20149;-83
2024/01/02 08:44:12;;;;;;;1.20;0.70;;;11.80;77.20;;;;;;6281449;22;20152;-85
2024/01/02 08:46:38;;;;;;;0.90;0.60;;;11.90;72.50;;;;;;6279913;22;20233;-85
2024/01/02 08:49:06;;;;;;;1.10;0.60;;;11.90;64.80;;;;;;6281026;22;20433;-84
2024/01/02 08:51:32;;;;;;;1.10;0.60;;;11.90;53.70;;;;;;6280614;22;20189;-85
2024/01/02 08:53:58;;;;;;;1.00;0.63;;;12.00;49.10;;;;;;6259030;22;20411;-85
2024/01/02 08:56:23;;;;;;;1.57;0.80;;;12.00;47.10;;;;;;6281062;22;20148;-84
2024/01/02 08:58:49;;;;;;;1.23;0.50;;;12.00;46.50;;;;;;6281958;22;20192;-84
2024/01/02 09:01:17;;;;;;;3.90;0.70;;;12.10;37.80;;;;;;6281968;22;20149;-85
2024/01/02 09:03:43;;;;;;;0.90;0.50;;;12.10;33.00;;;;;;6284514;22;20221;-82
2024/01/02 09:06:08;;;;;;;0.90;0.50;;;12.10;25.70;;;;;;6284107;22;20371;-85
2024/01/02 09:08:40;;;;;;;0.90;0.50;;;12.10;19.00;;;;;;6284759;22;20224;-85
2024/01/02 09:11:10;;;;;;;0.80;0.50;;;12.20;18.20;;;;;;6285442;22;20159;-83
2024/01/02 09:13:36;;;;;;;0.90;0.70;;;12.20;8.50;;;;;;6281731;22;20379;-84
2024/01/02 09:16:02;;;;;;;0.90;0.53;;;12.20;1.80;;;;;;6282605;22;20379;-82
2024/01/02 09:18:28;;;;;;;2.20;0.50;;;12.20;1.00;;;;;;6279803;22;20390;-81
2024/01/02 09:20:54;;;;;;;1.40;0.60;;;12.30;4.30;;;;;;6280031;22;20184;-81
2024/01/02 09:23:20;;;;;;;0.90;0.53;;;12.30;1.00;;;;;;6281808;22;20474;-81
2024/01/02 09:25:46;;;;;;;0.90;0.50;;;12.30;1.00;;;;;;6281583;22;20425;-81
2024/01/02 09:28:13;;;;;;;1.00;0.60;;;12.40;1.00;;;;;;6280329;22;20387;-85
2024/01/02 09:30:38;;;;;;;3.43;0.50;;;12.40;1.00;;;;;;6281634;22;20433;-81
2024/01/02 09:33:07;;;;;;;0.90;0.50;;;12.40;1.00;;;;;;6281954;22;20405;-81
2024/01/02 09:35:32;;;;;;;0.97;0.53;;;12.40;1.00;;;;;;6280589;22;20157;-81
2024/01/02 09:37:58;;;;;;;0.97;0.60;;;12.50;1.00;;;;;;6278587;22;20471;-83
2024/01/02 09:40:26;;;;;;;1.07;0.77;;;12.50;1.00;;;;;;6252210;22;20263;-81
2024/01/02 09:43:19;;;;;;;0.80;0.50;;;12.50;1.00;;;;;;6251362;22;20199;-82
2024/01/02 09:45:59;;;;;;;0.90;0.50;;;12.60;1.00;;;;;;6279908;22;20371;-82
2024/01/02 09:49:02;;;;;;;0.90;0.50;;;12.60;1.00;;;;;;6279512;22;20423;-82
2024/01/02 09:51:44;;;;;;;0.90;0.50;;;12.60;1.00;;;;;;6251258;22;20474;-81
2024/01/02 09:54:20;;;;;;;1.00;0.50;;;12.60;1.00;;;;;;6280785;22;20355;-83
2024/01/02 09:56:58;;;;;;;0.80;0.50;;;12.70;1.00;;;;;;6282700;22;20359;-82
2024/01/02 09:59:36;;;;;;;1.00;0.60;;;12.80;1.00;;;;;;6256595;22;20749;-82
2024/01/02 10:02:16;;;;;;;1.00;0.53;;;12.80;1.00;;;;;;6283348;22;20443;-82
2024/01/02 10:05:00;;;;;;;0.80;0.40;;;12.90;1.00;;;;;;6281926;22;20365;-82
2024/01/02 10:07:58;;;;;;;0.90;0.50;;;12.90;1.00;;;;;;6281358;22;20827;-82
2024/01/02 10:10:48;;;;;;;0.90;0.50;;;13.00;1.00;;;;;;6279872;22;20722;-83
2024/01/02 10:13:45;;;;;;;0.80;0.40;;;13.00;1.00;;;;;;6281989;22;20360;-83
2024/01/02 10:16:38;;;;;;;1.00;0.50;;;13.00;1.00;;;;;;6216175;22;20414;-84
2024/01/02 10:19:12;;;;;;;0.90;0.50;;;13.00;1.00;;;;;;6277808;22;20938;-82
2024/01/02 10:21:45;;;;;;;1.77;0.60;;;13.00;1.00;;;;;;6249938;22;20473;-83
2024/01/02 10:24:20;;;;;;;0.80;0.50;;;12.90;1.00;;;;;;6275839;22;20387;-82
2024/01/02 10:27:13;;;;;;;1.03;0.50;;;12.90;1.00;;;;;;6277117;22;20458;-82
2024/01/02 10:30:02;;;;;;;0.90;0.50;;;12.80;1.00;;;;;;6274536;22;20723;-83
2024/01/02 10:32:50;;;;;;;2.53;0.70;;;12.70;1.00;;;;;;6275025;22;20382;-83
2024/01/02 10:35:32;;;;;;;1.73;0.50;;;12.70;1.00;;;;;;6275981;22;20364;-82
2024/01/02 10:38:09;;;;;;;0.90;0.50;;;12.70;1.00;;;;;;6248550;22;20411;-82
2024/01/02 10:40:39;;;;;;;1.60;0.50;;;12.60;1.00;;;;;;6275592;22;20518;-83
2024/01/02 10:43:07;;;;;;;0.90;0.50;;;12.60;1.00;;;;;;6276168;22;20387;-84
2024/01/02 10:45:36;;;;;;;1.43;0.60;;;12.60;1.00;;;;;;6248788;22;20413;-83
2024/01/02 10:48:16;;;;;;;1.33;0.60;;;12.50;1.00;;;;;;6274879;22;20894;-84
2024/01/02 10:50:50;;;;;;;1.13;0.50;;;12.40;1.00;;;;;;6275252;22;20364;-83
2024/01/02 10:53:17;;;;;;;0.90;0.50;;;12.40;1.00;;;;;;6277915;22;20708;-83
2024/01/02 10:55:49;;;;;;;1.13;0.50;;;12.30;1.00;;;;;;6277041;22;20376;-83
2024/01/02 10:58:22;;;;;;;1.00;0.50;;;12.20;1.00;;;;;;6276727;22;20398;-83
2024/01/02 11:01:03;;;;;;;0.80;0.50;;;12.20;1.00;;;;;;6277679;22;20771;-85
2024/01/02 11:03:34;;;;;;;0.90;0.57;;;12.10;1.00;;;;;;6275860;22;20367;-84
2024/01/02 11:06:23;;;;;;;1.43;0.60;;;12.10;1.00;;;;;;6249850;22;20449;-84
2024/01/02 11:09:26;;;;;;;1.03;0.60;;;12.10;1.00;;;;;;6275982;22;20752;-84
2024/01/02 11:11:54;;;;;;;0.87;0.50;;;12.10;1.00;;;;;;6277195;22;20361;-85
2024/01/02 11:14:24;;;;;;;0.80;0.40;;;12.00;1.00;;;;;;6274400;22;20762;-83
2024/01/02 11:16:52;;;;;;;1.20;0.60;;;12.00;1.00;;;;;;6276515;22;20371;-83
2024/01/02 11:19:23;;;;;;;2.20;0.50;;;12.00;1.00;;;;;;6275735;22;20426;-83
2024/01/02 11:22:00;;;;;;;0.90;0.50;;;12.00;1.00;;;;;;6276916;22;20843;-84
2024/01/02 11:24:30;;;;;;;0.90;0.50;;;12.00;1.00;;;;;;6249113;22;20412;-84
2024/01/02 11:27:00;;;;;;;1.00;0.57;;;12.00;1.00;;;;;;6250082;22;20803;-83
2024/01/02 11:29:28;;;;;;;0.90;0.50;;;12.00;1.00;;;;;;6245899;22;20439;-83
2024/01/02 11:31:55;;;;;;;0.90;0.50;;;12.00;1.00;;;;;;6273535;22;20403;-80
2024/01/02 11:35:00;;;;;;;1.10;0.60;;;11.90;1.00;;;;;;6276671;22;20394;-83
2024/01/02 11:37:38;;;;;;;0.90;0.50;;;11.90;1.00;;;;;;6120694;23;20392;-84
2024/01/02 11:40:26;;;;;;;1.10;0.60;;;11.90;1.00;;;;;;6238514;22;20769;-86
2024/01/02 11:43:26;;;;;;;1.10;0.60;;;11.90;1.00;;;;;;6276694;22;20356;-83
2024/01/02 11:46:03;;;;;;;1.10;0.50;;;11.80;1.00;;;;;;6274746;22;20351;-83
2024/01/02 11:48:58;;;;;;;1.13;0.50;;;11.70;1.00;;;;;;6271527;22;20398;-81
2024/01/02 11:51:27;;;;;;;1.23;0.60;;;11.60;1.00;;;;;;6269948;22;20360;-84
2024/01/02 11:54:30;;;;;;;2.47;0.80;;;11.60;1.00;;;;;;6273299;22;20379;-82
2024/01/02 11:56:57;;;;;;;1.77;0.60;;;11.60;1.00;;;;;;6242545;22;20378;-83
2024/01/02 11:59:43;;;;;;;1.00;0.60;;;11.50;1.00;;;;;;6269081;22;20453;-83
2024/01/02 12:02:19;;;;;;;1.00;0.50;;;11.50;1.00;;;;;;6245360;22;20368;-82
2024/01/02 12:04:51;;;;;;;2.00;0.57;;;11.50;1.00;;;;;;6271324;22;20372;-83
2024/01/02 12:07:26;;;;;;;1.93;0.70;;;11.40;1.40;;;;;;6244822;22;20384;-83
2024/01/02 12:09:54;;;;;;;0.90;0.50;;;11.40;8.30;;;;;;6275073;22;20387;-83
2024/01/02 12:12:52;;;;;;;0.80;0.40;;;11.40;9.90;;;;;;6273320;22;20390;-84
2024/01/02 12:15:35;;;;;;;2.03;0.53;;;11.40;9.80;;;;;;6274791;22;20704;-83
2024/01/02 12:18:06;;;;;;;0.90;0.50;;;11.40;10.80;;;;;;6274632;22;20419;-84
2024/01/02 12:20:45;;;;;;;3.07;0.50;;;11.30;17.50;;;;;;6247437;22;20457;-83
2024/01/02 12:23:12;;;;;;;3.90;0.70;;;11.30;20.80;;;;;;6274714;22;20389;-83
2024/01/02 12:25:42;;;;;;;3.73;0.60;;;11.20;21.20;;;;;;6272846;22;20382;-83
2024/01/02 12:28:09;;;;;;;0.80;0.50;;;11.30;22.30;;;;;;6276184;22;20421;-85
2024/01/02 12:30:53;;;;;;;2.60;0.93;;;11.20;32.60;;;;;;6253287;22;20383;-84
2024/01/02 12:33:34;;;;;;;2.13;1.03;;;11.10;38.00;;;;;;6280891;22;20686;-83
2024/01/02 12:36:06;;;;;;;0.90;0.50;;;11.10;37.50;;;;;;6280865;22;20607;-85
2024/01/02 12:38:45;;;;;;;0.90;0.50;;;11.10;43.90;;;;;;6280852;22;20430;-83
2024/01/02 12:41:17;;;;;;;1.20;0.60;;;11.10;42.00;;;;;;6283017;22;20360;-81
2024/01/02 12:43:45;;;;;;;1.20;0.60;;;11.10;44.30;;;;;;6280646;22;20367;-83
2024/01/02 12:46:17;;;;;;;1.77;0.70;;;11.00;42.20;;;;;;6283119;22;20376;-83
2024/01/02 12:48:58;;;;;;;1.10;0.53;;;11.00;45.50;;;;;;6255172;22;20403;-82
2024/01/02 12:51:29;;;;;;;1.00;0.70;;;11.00;45.00;;;;;;6283212;22;20415;-82
2024/01/02 12:53:58;;;;;;;1.97;0.70;;;11.00;49.60;;;;;;6256733;22;20372;-83
2024/01/02 12:56:31;;;;;;;0.87;0.53;;;11.00;52.20;;;;;;6280841;22;20382;-82
2024/01/02 12:59:01;;;;;;;0.90;0.60;;;11.00;53.90;;;;;;6281390;22;20817;-81
2024/01/02 13:01:28;;;;;;;1.37;0.90;;;11.00;53.80;;;;;;6282359;22;20378;-81